sensor_id;sensor_type;location;lat;lon;timestamp;pressure;altitude;pressure_sealevel;temperature
11321;BMP180;5715;48.234;14.320;2022-12-18T00:02:21;99930.00;;;2.40
11321;BMP180;5715;48.234;14.320;2022-12-18T00:05:09;99926.00;;;2.60
11321;BMP180;5715;48.234;14.320;2022-12-18T00:07:56;99933.00;;;2.70
11321;BMP180;5715;48.234;14.320;2022-12-18T00:10:45;99926.00;;;2.80
11321;BMP180;5715;48.234;14.320;2022-12-18T00:13:34;99936.00;;;2.90
11321;BMP180;5715;48.234;14.320;2022-12-18T00:16:25;99938.00;;;2.80
11321;BMP180;5715;48.234;14.320;2022-12-18T00:19:14;99938.00;;;3.00
11321;BMP180;5715;48.234;14.320;2022-12-18T00:22:02;99940.00;;;2.90
11321;BMP180;5715;48.234;14.320;2022-12-18T00:24:49;99934.00;;;2.80
11321;BMP180;5715;48.234;14.320;2022-12-18T00:27:37;99928.00;;;3.00
11321;BMP180;5715;48.234;14.320;2022-12-18T00:30:25;99935.00;;;3.10
11321;BMP180;5715;48.234;14.320;2022-12-18T00:33:12;99941.00;;;2.90
11321;BMP180;5715;48.234;14.320;2022-12-18T00:36:13;99948.00;;;3.10
11321;BMP180;5715;48.234;14.320;2022-12-18T00:39:04;99947.00;;;3.10
11321;BMP180;5715;48.234;14.320;2022-12-18T00:41:53;99946.00;;;3.10
11321;BMP180;5715;48.234;14.320;2022-12-18T00:44:59;99950.00;;;3.30
11321;BMP180;5715;48.234;14.320;2022-12-18T00:47:46;99959.00;;;3.20
11321;BMP180;5715;48.234;14.320;2022-12-18T00:50:34;99971.00;;;3.40
11321;BMP180;5715;48.234;14.320;2022-12-18T00:53:22;99960.00;;;3.40
11321;BMP180;5715;48.234;14.320;2022-12-18T00:56:09;99959.00;;;3.40
11321;BMP180;5715;48.234;14.320;2022-12-18T00:58:57;99967.00;;;3.50
11321;BMP180;5715;48.234;14.320;2022-12-18T01:01:45;99973.00;;;3.30
11321;BMP180;5715;48.234;14.320;2022-12-18T01:04:34;99979.00;;;3.40
11321;BMP180;5715;48.234;14.320;2022-12-18T01:07:21;99979.00;;;3.50
11321;BMP180;5715;48.234;14.320;2022-12-18T01:10:12;99985.00;;;3.60
11321;BMP180;5715;48.234;14.320;2022-12-18T01:12:59;99982.00;;;3.60
11321;BMP180;5715;48.234;14.320;2022-12-18T01:15:51;99983.00;;;3.60
11321;BMP180;5715;48.234;14.320;2022-12-18T01:18:39;99989.00;;;3.50
11321;BMP180;5715;48.234;14.320;2022-12-18T01:21:27;99983.00;;;3.40
11321;BMP180;5715;48.234;14.320;2022-12-18T01:24:15;99986.00;;;3.50
11321;BMP180;5715;48.234;14.320;2022-12-18T01:27:02;99995.00;;;3.60
11321;BMP180;5715;48.234;14.320;2022-12-18T01:29:50;99999.00;;;3.50
11321;BMP180;5715;48.234;14.320;2022-12-18T01:32:38;99999.00;;;3.60
11321;BMP180;5715;48.234;14.320;2022-12-18T01:35:26;99993.00;;;3.40
11321;BMP180;5715;48.234;14.320;2022-12-18T01:38:13;99992.00;;;3.60
11321;BMP180;5715;48.234;14.320;2022-12-18T01:41:02;99998.00;;;3.60
11321;BMP180;5715;48.234;14.320;2022-12-18T01:43:55;99996.00;;;3.60
11321;BMP180;5715;48.234;14.320;2022-12-18T01:46:44;99993.00;;;3.60
11321;BMP180;5715;48.234;14.320;2022-12-18T01:49:31;100002.00;;;3.50
11321;BMP180;5715;48.234;14.320;2022-12-18T01:52:21;100001.00;;;3.70
11321;BMP180;5715;48.234;14.320;2022-12-18T01:55:12;100009.00;;;3.70
11321;BMP180;5715;48.234;14.320;2022-12-18T01:58:01;100003.00;;;3.70
11321;BMP180;5715;48.234;14.320;2022-12-18T02:00:49;100002.00;;;3.70
11321;BMP180;5715;48.234;14.320;2022-12-18T02:03:36;99991.00;;;3.70
11321;BMP180;5715;48.234;14.320;2022-12-18T02:06:36;99979.00;;;3.80
11321;BMP180;5715;48.234;14.320;2022-12-18T02:09:41;99982.00;;;3.80
11321;BMP180;5715;48.234;14.320;2022-12-18T02:16:26;99997.00;;;4.10
11321;BMP180;5715;48.234;14.320;2022-12-18T02:19:55;99991.00;;;4.10
11321;BMP180;5715;48.234;14.320;2022-12-18T02:23:44;99994.00;;;4.10
11321;BMP180;5715;48.234;14.320;2022-12-18T02:26:46;99986.00;;;4.20
11321;BMP180;5715;48.234;14.320;2022-12-18T02:29:51;99992.00;;;4.20
11321;BMP180;5715;48.234;14.320;2022-12-18T02:32:52;100004.00;;;4.20
11321;BMP180;5715;48.234;14.320;2022-12-18T02:35:42;100009.00;;;4.30
11321;BMP180;5715;48.234;14.320;2022-12-18T02:38:33;100001.00;;;4.20
11321;BMP180;5715;48.234;14.320;2022-12-18T02:41:23;99998.00;;;4.20
11321;BMP180;5715;48.234;14.320;2022-12-18T02:44:13;100004.00;;;4.10
11321;BMP180;5715;48.234;14.320;2022-12-18T02:47:01;100008.00;;;4.10
11321;BMP180;5715;48.234;14.320;2022-12-18T02:53:25;100023.00;;;3.90
11321;BMP180;5715;48.234;14.320;2022-12-18T02:56:26;100030.00;;;3.80
11321;BMP180;5715;48.234;14.320;2022-12-18T02:59:39;100024.00;;;3.60
11321;BMP180;5715;48.234;14.320;2022-12-18T03:02:51;100017.00;;;3.50
11321;BMP180;5715;48.234;14.320;2022-12-18T03:05:54;100016.00;;;3.40
11321;BMP180;5715;48.234;14.320;2022-12-18T03:08:51;100023.00;;;3.30
11321;BMP180;5715;48.234;14.320;2022-12-18T03:11:46;100022.00;;;3.00
11321;BMP180;5715;48.234;14.320;2022-12-18T03:18:32;100031.00;;;2.80
11321;BMP180;5715;48.234;14.320;2022-12-18T03:21:29;100028.00;;;2.70
11321;BMP180;5715;48.234;14.320;2022-12-18T03:24:21;100023.00;;;2.80
11321;BMP180;5715;48.234;14.320;2022-12-18T03:27:14;100029.00;;;3.00
11321;BMP180;5715;48.234;14.320;2022-12-18T03:30:08;100024.00;;;2.90
11321;BMP180;5715;48.234;14.320;2022-12-18T03:33:38;100016.00;;;2.80
11321;BMP180;5715;48.234;14.320;2022-12-18T03:36:32;100005.00;;;2.90
11321;BMP180;5715;48.234;14.320;2022-12-18T03:39:20;100014.00;;;2.90
11321;BMP180;5715;48.234;14.320;2022-12-18T03:45:20;100028.00;;;2.80
11321;BMP180;5715;48.234;14.320;2022-12-18T03:48:20;100039.00;;;2.90
11321;BMP180;5715;48.234;14.320;2022-12-18T03:51:26;100037.00;;;2.90
11321;BMP180;5715;48.234;14.320;2022-12-18T03:54:17;100029.00;;;3.00
11321;BMP180;5715;48.234;14.320;2022-12-18T03:57:20;100029.00;;;3.20
11321;BMP180;5715;48.234;14.320;2022-12-18T04:00:16;100025.00;;;3.30
11321;BMP180;5715;48.234;14.320;2022-12-18T04:03:05;100028.00;;;3.30
11321;BMP180;5715;48.234;14.320;2022-12-18T04:05:57;100032.00;;;3.30
11321;BMP180;5715;48.234;14.320;2022-12-18T04:08:47;100038.00;;;3.30
11321;BMP180;5715;48.234;14.320;2022-12-18T04:11:35;100042.00;;;3.50
11321;BMP180;5715;48.234;14.320;2022-12-18T04:14:23;100035.00;;;3.50
11321;BMP180;5715;48.234;14.320;2022-12-18T04:17:11;100037.00;;;3.40
11321;BMP180;5715;48.234;14.320;2022-12-18T04:19:59;100034.00;;;3.50
11321;BMP180;5715;48.234;14.320;2022-12-18T04:22:47;100048.00;;;3.40
11321;BMP180;5715;48.234;14.320;2022-12-18T04:25:35;100041.00;;;3.50
11321;BMP180;5715;48.234;14.320;2022-12-18T04:28:23;100042.00;;;3.50
11321;BMP180;5715;48.234;14.320;2022-12-18T04:31:10;100052.00;;;3.50
11321;BMP180;5715;48.234;14.320;2022-12-18T04:33:58;100052.00;;;3.70
11321;BMP180;5715;48.234;14.320;2022-12-18T04:36:46;100047.00;;;3.50
11321;BMP180;5715;48.234;14.320;2022-12-18T04:39:34;100044.00;;;3.40
11321;BMP180;5715;48.234;14.320;2022-12-18T04:42:22;100038.00;;;3.50
11321;BMP180;5715;48.234;14.320;2022-12-18T04:45:11;100045.00;;;3.40
11321;BMP180;5715;48.234;14.320;2022-12-18T04:48:01;100044.00;;;3.40
11321;BMP180;5715;48.234;14.320;2022-12-18T04:50:49;100052.00;;;3.50
11321;BMP180;5715;48.234;14.320;2022-12-18T04:53:36;100058.00;;;3.60
11321;BMP180;5715;48.234;14.320;2022-12-18T04:56:25;100062.00;;;3.50
11321;BMP180;5715;48.234;14.320;2022-12-18T04:59:12;100067.00;;;3.50
11321;BMP180;5715;48.234;14.320;2022-12-18T05:02:00;100064.00;;;3.50
11321;BMP180;5715;48.234;14.320;2022-12-18T05:04:48;100054.00;;;3.60
11321;BMP180;5715;48.234;14.320;2022-12-18T05:07:36;100050.00;;;3.40
11321;BMP180;5715;48.234;14.320;2022-12-18T05:10:24;100060.00;;;3.40
11321;BMP180;5715;48.234;14.320;2022-12-18T05:13:11;100055.00;;;3.60
11321;BMP180;5715;48.234;14.320;2022-12-18T05:15:59;100058.00;;;3.30
11321;BMP180;5715;48.234;14.320;2022-12-18T05:18:47;100060.00;;;3.10
11321;BMP180;5715;48.234;14.320;2022-12-18T05:21:34;100060.00;;;2.90
11321;BMP180;5715;48.234;14.320;2022-12-18T05:24:22;100061.00;;;2.80
11321;BMP180;5715;48.234;14.320;2022-12-18T05:27:09;100069.00;;;3.20
11321;BMP180;5715;48.234;14.320;2022-12-18T05:29:57;100063.00;;;3.10
11321;BMP180;5715;48.234;14.320;2022-12-18T05:32:45;100063.00;;;2.80
11321;BMP180;5715;48.234;14.320;2022-12-18T05:35:32;100070.00;;;2.60
11321;BMP180;5715;48.234;14.320;2022-12-18T05:38:21;100064.00;;;2.60
11321;BMP180;5715;48.234;14.320;2022-12-18T05:41:10;100086.00;;;2.50
11321;BMP180;5715;48.234;14.320;2022-12-18T05:43:58;100083.00;;;2.50
11321;BMP180;5715;48.234;14.320;2022-12-18T05:46:46;100083.00;;;2.10
11321;BMP180;5715;48.234;14.320;2022-12-18T05:49:34;100096.00;;;1.90
11321;BMP180;5715;48.234;14.320;2022-12-18T05:52:22;100094.00;;;1.50
11321;BMP180;5715;48.234;14.320;2022-12-18T05:55:09;100088.00;;;1.60
11321;BMP180;5715;48.234;14.320;2022-12-18T05:57:57;100095.00;;;1.30
11321;BMP180;5715;48.234;14.320;2022-12-18T06:00:46;100087.00;;;1.70
11321;BMP180;5715;48.234;14.320;2022-12-18T06:03:33;100106.00;;;1.60
11321;BMP180;5715;48.234;14.320;2022-12-18T06:06:25;100106.00;;;1.40
11321;BMP180;5715;48.234;14.320;2022-12-18T06:09:13;100118.00;;;1.40
11321;BMP180;5715;48.234;14.320;2022-12-18T06:12:00;100119.00;;;1.30
11321;BMP180;5715;48.234;14.320;2022-12-18T06:14:48;100123.00;;;1.30
11321;BMP180;5715;48.234;14.320;2022-12-18T06:17:36;100124.00;;;1.30
11321;BMP180;5715;48.234;14.320;2022-12-18T06:20:24;100127.00;;;1.10
11321;BMP180;5715;48.234;14.320;2022-12-18T06:23:19;100137.00;;;1.10
11321;BMP180;5715;48.234;14.320;2022-12-18T06:26:09;100134.00;;;1.10
11321;BMP180;5715;48.234;14.320;2022-12-18T06:28:57;100132.00;;;1.10
11321;BMP180;5715;48.234;14.320;2022-12-18T06:31:45;100122.00;;;0.80
11321;BMP180;5715;48.234;14.320;2022-12-18T06:34:33;100127.00;;;0.90
11321;BMP180;5715;48.234;14.320;2022-12-18T06:37:22;100141.00;;;0.90
11321;BMP180;5715;48.234;14.320;2022-12-18T06:40:13;100135.00;;;0.80
11321;BMP180;5715;48.234;14.320;2022-12-18T06:43:00;100147.00;;;0.80
11321;BMP180;5715;48.234;14.320;2022-12-18T06:45:48;100135.00;;;0.90
11321;BMP180;5715;48.234;14.320;2022-12-18T06:48:40;100144.00;;;0.80
11321;BMP180;5715;48.234;14.320;2022-12-18T06:51:27;100147.00;;;1.00
11321;BMP180;5715;48.234;14.320;2022-12-18T06:54:15;100160.00;;;1.10
11321;BMP180;5715;48.234;14.320;2022-12-18T06:57:03;100157.00;;;1.30
11321;BMP180;5715;48.234;14.320;2022-12-18T06:59:51;100163.00;;;1.40
11321;BMP180;5715;48.234;14.320;2022-12-18T07:02:39;100158.00;;;1.30
11321;BMP180;5715;48.234;14.320;2022-12-18T07:05:27;100167.00;;;1.00
11321;BMP180;5715;48.234;14.320;2022-12-18T07:08:15;100168.00;;;0.50
11321;BMP180;5715;48.234;14.320;2022-12-18T07:11:04;100182.00;;;0.80
11321;BMP180;5715;48.234;14.320;2022-12-18T07:13:52;100175.00;;;1.00
11321;BMP180;5715;48.234;14.320;2022-12-18T07:16:41;100182.00;;;1.40
11321;BMP180;5715;48.234;14.320;2022-12-18T07:19:29;100181.00;;;1.40
11321;BMP180;5715;48.234;14.320;2022-12-18T07:22:18;100185.00;;;1.60
11321;BMP180;5715;48.234;14.320;2022-12-18T07:25:07;100187.00;;;1.80
11321;BMP180;5715;48.234;14.320;2022-12-18T07:27:54;100178.00;;;1.90
11321;BMP180;5715;48.234;14.320;2022-12-18T07:30:42;100175.00;;;2.10
11321;BMP180;5715;48.234;14.320;2022-12-18T07:33:30;100177.00;;;2.10
11321;BMP180;5715;48.234;14.320;2022-12-18T07:36:19;100179.00;;;2.30
11321;BMP180;5715;48.234;14.320;2022-12-18T07:39:11;100181.00;;;2.40
11321;BMP180;5715;48.234;14.320;2022-12-18T07:41:59;100174.00;;;2.60
11321;BMP180;5715;48.234;14.320;2022-12-18T07:45:06;100175.00;;;2.50
11321;BMP180;5715;48.234;14.320;2022-12-18T07:47:53;100180.00;;;2.60
11321;BMP180;5715;48.234;14.320;2022-12-18T07:50:41;100168.00;;;2.40
11321;BMP180;5715;48.234;14.320;2022-12-18T07:53:28;100179.00;;;2.10
11321;BMP180;5715;48.234;14.320;2022-12-18T07:56:16;100196.00;;;2.10
11321;BMP180;5715;48.234;14.320;2022-12-18T07:59:14;100184.00;;;2.30
11321;BMP180;5715;48.234;14.320;2022-12-18T08:02:02;100193.00;;;2.30
11321;BMP180;5715;48.234;14.320;2022-12-18T08:04:50;100196.00;;;2.40
11321;BMP180;5715;48.234;14.320;2022-12-18T08:07:38;100200.00;;;2.50
11321;BMP180;5715;48.234;14.320;2022-12-18T08:10:27;100196.00;;;2.60
11321;BMP180;5715;48.234;14.320;2022-12-18T08:13:14;100197.00;;;2.50
11321;BMP180;5715;48.234;14.320;2022-12-18T08:16:07;100190.00;;;2.50
11321;BMP180;5715;48.234;14.320;2022-12-18T08:18:55;100193.00;;;2.40
11321;BMP180;5715;48.234;14.320;2022-12-18T08:21:42;100196.00;;;2.50
11321;BMP180;5715;48.234;14.320;2022-12-18T08:24:30;100206.00;;;2.60
11321;BMP180;5715;48.234;14.320;2022-12-18T08:27:17;100205.00;;;2.60
11321;BMP180;5715;48.234;14.320;2022-12-18T08:30:20;100217.00;;;3.00
11321;BMP180;5715;48.234;14.320;2022-12-18T08:33:08;100211.00;;;3.00
11321;BMP180;5715;48.234;14.320;2022-12-18T08:35:56;100202.00;;;3.00
11321;BMP180;5715;48.234;14.320;2022-12-18T08:38:46;100203.00;;;2.70
11321;BMP180;5715;48.234;14.320;2022-12-18T08:41:33;100208.00;;;2.70
11321;BMP180;5715;48.234;14.320;2022-12-18T08:44:21;100207.00;;;2.90
11321;BMP180;5715;48.234;14.320;2022-12-18T08:47:27;100213.00;;;2.70
11321;BMP180;5715;48.234;14.320;2022-12-18T08:50:15;100211.00;;;2.90
11321;BMP180;5715;48.234;14.320;2022-12-18T08:53:03;100212.00;;;2.90
11321;BMP180;5715;48.234;14.320;2022-12-18T08:55:51;100215.00;;;2.40
11321;BMP180;5715;48.234;14.320;2022-12-18T08:58:40;100215.00;;;2.20
11321;BMP180;5715;48.234;14.320;2022-12-18T09:01:28;100210.00;;;1.80
11321;BMP180;5715;48.234;14.320;2022-12-18T09:04:16;100214.00;;;2.30
11321;BMP180;5715;48.234;14.320;2022-12-18T09:07:03;100206.00;;;2.40
11321;BMP180;5715;48.234;14.320;2022-12-18T09:09:51;100214.00;;;2.40
11321;BMP180;5715;48.234;14.320;2022-12-18T09:12:38;100202.00;;;2.60
11321;BMP180;5715;48.234;14.320;2022-12-18T09:15:26;100196.00;;;2.80
11321;BMP180;5715;48.234;14.320;2022-12-18T09:18:17;100202.00;;;3.00
11321;BMP180;5715;48.234;14.320;2022-12-18T09:21:14;100192.00;;;3.00
11321;BMP180;5715;48.234;14.320;2022-12-18T09:24:01;100200.00;;;2.90
11321;BMP180;5715;48.234;14.320;2022-12-18T09:26:53;100188.00;;;3.60
11321;BMP180;5715;48.234;14.320;2022-12-18T09:29:44;100190.00;;;3.70
11321;BMP180;5715;48.234;14.320;2022-12-18T09:32:31;100186.00;;;4.20
11321;BMP180;5715;48.234;14.320;2022-12-18T09:35:19;100188.00;;;4.50
11321;BMP180;5715;48.234;14.320;2022-12-18T09:38:08;100186.00;;;4.80
11321;BMP180;5715;48.234;14.320;2022-12-18T09:44:47;100197.00;;;5.40
11321;BMP180;5715;48.234;14.320;2022-12-18T09:47:39;100200.00;;;5.40
11321;BMP180;5715;48.234;14.320;2022-12-18T09:50:37;100188.00;;;5.60
11321;BMP180;5715;48.234;14.320;2022-12-18T09:53:31;100187.00;;;6.00
11321;BMP180;5715;48.234;14.320;2022-12-18T09:56:22;100180.00;;;6.10
11321;BMP180;5715;48.234;14.320;2022-12-18T09:59:37;100179.00;;;5.80
11321;BMP180;5715;48.234;14.320;2022-12-18T10:02:30;100183.00;;;5.40
11321;BMP180;5715;48.234;14.320;2022-12-18T10:09:03;100182.00;;;5.30
11321;BMP180;5715;48.234;14.320;2022-12-18T10:15:20;100174.00;;;5.50
11321;BMP180;5715;48.234;14.320;2022-12-18T10:18:37;100182.00;;;5.40
11321;BMP180;5715;48.234;14.320;2022-12-18T10:21:42;100173.00;;;5.50
11321;BMP180;5715;48.234;14.320;2022-12-18T10:24:38;100162.00;;;5.40
11321;BMP180;5715;48.234;14.320;2022-12-18T10:27:29;100161.00;;;5.10
11321;BMP180;5715;48.234;14.320;2022-12-18T10:30:22;100168.00;;;5.10
11321;BMP180;5715;48.234;14.320;2022-12-18T10:33:20;100172.00;;;5.80
11321;BMP180;5715;48.234;14.320;2022-12-18T10:36:09;100167.00;;;5.20
11321;BMP180;5715;48.234;14.320;2022-12-18T10:39:23;100159.00;;;5.30
11321;BMP180;5715;48.234;14.320;2022-12-18T10:42:18;100156.00;;;5.00
11321;BMP180;5715;48.234;14.320;2022-12-18T10:45:17;100156.00;;;4.70
11321;BMP180;5715;48.234;14.320;2022-12-18T10:48:19;100144.00;;;4.50
11321;BMP180;5715;48.234;14.320;2022-12-18T10:51:08;100140.00;;;4.80
11321;BMP180;5715;48.234;14.320;2022-12-18T10:54:21;100121.00;;;5.00
11321;BMP180;5715;48.234;14.320;2022-12-18T10:57:38;100116.00;;;4.90
11321;BMP180;5715;48.234;14.320;2022-12-18T11:00:29;100122.00;;;5.40
11321;BMP180;5715;48.234;14.320;2022-12-18T11:03:40;100116.00;;;5.60
11321;BMP180;5715;48.234;14.320;2022-12-18T11:06:32;100109.00;;;5.30
11321;BMP180;5715;48.234;14.320;2022-12-18T11:09:30;100107.00;;;5.20
11321;BMP180;5715;48.234;14.320;2022-12-18T11:12:23;100106.00;;;4.90
11321;BMP180;5715;48.234;14.320;2022-12-18T11:15:25;100108.00;;;5.20
11321;BMP180;5715;48.234;14.320;2022-12-18T11:18:30;100097.00;;;5.50
11321;BMP180;5715;48.234;14.320;2022-12-18T11:21:19;100084.00;;;5.30
11321;BMP180;5715;48.234;14.320;2022-12-18T11:24:41;100103.00;;;5.90
11321;BMP180;5715;48.234;14.320;2022-12-18T11:27:29;100101.00;;;5.90
11321;BMP180;5715;48.234;14.320;2022-12-18T11:30:29;100099.00;;;6.00
11321;BMP180;5715;48.234;14.320;2022-12-18T11:33:22;100091.00;;;5.90
11321;BMP180;5715;48.234;14.320;2022-12-18T11:36:11;100095.00;;;5.50
11321;BMP180;5715;48.234;14.320;2022-12-18T11:39:09;100093.00;;;5.70
11321;BMP180;5715;48.234;14.320;2022-12-18T11:42:13;100090.00;;;6.10
11321;BMP180;5715;48.234;14.320;2022-12-18T11:45:27;100087.00;;;5.70
11321;BMP180;5715;48.234;14.320;2022-12-18T11:48:33;100095.00;;;5.60
11321;BMP180;5715;48.234;14.320;2022-12-18T11:51:48;100101.00;;;5.50
11321;BMP180;5715;48.234;14.320;2022-12-18T11:54:37;100089.00;;;6.10
11321;BMP180;5715;48.234;14.320;2022-12-18T11:57:36;100089.00;;;6.10
11321;BMP180;5715;48.234;14.320;2022-12-18T12:00:27;100085.00;;;5.90
11321;BMP180;5715;48.234;14.320;2022-12-18T12:03:47;100073.00;;;5.80
11321;BMP180;5715;48.234;14.320;2022-12-18T12:10:39;100061.00;;;5.50
11321;BMP180;5715;48.234;14.320;2022-12-18T12:16:39;100050.00;;;5.80
11321;BMP180;5715;48.234;14.320;2022-12-18T12:23:05;100048.00;;;5.70
11321;BMP180;5715;48.234;14.320;2022-12-18T12:26:11;100056.00;;;5.90
11321;BMP180;5715;48.234;14.320;2022-12-18T12:29:24;100050.00;;;5.70
11321;BMP180;5715;48.234;14.320;2022-12-18T12:39:11;100056.00;;;6.30
11321;BMP180;5715;48.234;14.320;2022-12-18T12:42:08;100063.00;;;6.10
11321;BMP180;5715;48.234;14.320;2022-12-18T12:45:38;100078.00;;;6.30
11321;BMP180;5715;48.234;14.320;2022-12-18T12:48:46;100080.00;;;6.30
11321;BMP180;5715;48.234;14.320;2022-12-18T12:51:39;100083.00;;;6.20
11321;BMP180;5715;48.234;14.320;2022-12-18T12:54:31;100085.00;;;6.00
11321;BMP180;5715;48.234;14.320;2022-12-18T12:57:38;100080.00;;;6.20
11321;BMP180;5715;48.234;14.320;2022-12-18T13:00:44;100080.00;;;5.90
11321;BMP180;5715;48.234;14.320;2022-12-18T13:03:37;100088.00;;;6.20
11321;BMP180;5715;48.234;14.320;2022-12-18T13:06:57;100088.00;;;6.30
11321;BMP180;5715;48.234;14.320;2022-12-18T13:10:25;100098.00;;;6.50
11321;BMP180;5715;48.234;14.320;2022-12-18T13:13:16;100099.00;;;6.30
11321;BMP180;5715;48.234;14.320;2022-12-18T13:16:10;100106.00;;;6.30
11321;BMP180;5715;48.234;14.320;2022-12-18T13:18:58;100109.00;;;6.30
11321;BMP180;5715;48.234;14.320;2022-12-18T13:21:54;100110.00;;;6.50
11321;BMP180;5715;48.234;14.320;2022-12-18T13:24:43;100105.00;;;6.70
11321;BMP180;5715;48.234;14.320;2022-12-18T13:36:30;100112.00;;;6.60
11321;BMP180;5715;48.234;14.320;2022-12-18T13:45:44;100120.00;;;6.80
11321;BMP180;5715;48.234;14.320;2022-12-18T13:48:37;100111.00;;;6.70
11321;BMP180;5715;48.234;14.320;2022-12-18T13:51:27;100109.00;;;6.80
11321;BMP180;5715;48.234;14.320;2022-12-18T13:57:44;100111.00;;;6.10
11321;BMP180;5715;48.234;14.320;2022-12-18T14:00:33;100106.00;;;6.00
11321;BMP180;5715;48.234;14.320;2022-12-18T14:03:25;100106.00;;;6.10
11321;BMP180;5715;48.234;14.320;2022-12-18T14:06:14;100109.00;;;5.70
11321;BMP180;5715;48.234;14.320;2022-12-18T14:09:03;100105.00;;;6.00
11321;BMP180;5715;48.234;14.320;2022-12-18T14:11:57;100106.00;;;5.70
11321;BMP180;5715;48.234;14.320;2022-12-18T14:15:34;100101.00;;;5.90
11321;BMP180;5715;48.234;14.320;2022-12-18T14:18:52;100114.00;;;5.30
11321;BMP180;5715;48.234;14.320;2022-12-18T14:21:55;100113.00;;;5.00
11321;BMP180;5715;48.234;14.320;2022-12-18T14:24:43;100105.00;;;5.50
11321;BMP180;5715;48.234;14.320;2022-12-18T14:27:31;100110.00;;;5.90
11321;BMP180;5715;48.234;14.320;2022-12-18T14:30:26;100119.00;;;6.00
11321;BMP180;5715;48.234;14.320;2022-12-18T14:33:21;100119.00;;;5.90
11321;BMP180;5715;48.234;14.320;2022-12-18T14:36:18;100112.00;;;5.90
11321;BMP180;5715;48.234;14.320;2022-12-18T14:39:16;100134.00;;;4.80
11321;BMP180;5715;48.234;14.320;2022-12-18T14:42:04;100130.00;;;4.90
11321;BMP180;5715;48.234;14.320;2022-12-18T14:44:52;100130.00;;;5.30
11321;BMP180;5715;48.234;14.320;2022-12-18T14:48:00;100147.00;;;5.20
11321;BMP180;5715;48.234;14.320;2022-12-18T14:54:17;100148.00;;;4.70
11321;BMP180;5715;48.234;14.320;2022-12-18T14:57:35;100140.00;;;4.40
11321;BMP180;5715;48.234;14.320;2022-12-18T15:00:25;100128.00;;;4.60
11321;BMP180;5715;48.234;14.320;2022-12-18T15:03:20;100137.00;;;5.00
11321;BMP180;5715;48.234;14.320;2022-12-18T15:06:35;100143.00;;;5.00
11321;BMP180;5715;48.234;14.320;2022-12-18T15:09:25;100145.00;;;5.00
11321;BMP180;5715;48.234;14.320;2022-12-18T15:18:35;100155.00;;;5.00
11321;BMP180;5715;48.234;14.320;2022-12-18T15:21:28;100153.00;;;4.70
11321;BMP180;5715;48.234;14.320;2022-12-18T15:24:27;100155.00;;;4.40
11321;BMP180;5715;48.234;14.320;2022-12-18T15:27:35;100165.00;;;5.10
11321;BMP180;5715;48.234;14.320;2022-12-18T15:30:25;100159.00;;;4.50
11321;BMP180;5715;48.234;14.320;2022-12-18T15:33:26;100162.00;;;5.10
11321;BMP180;5715;48.234;14.320;2022-12-18T15:36:16;100167.00;;;5.10
11321;BMP180;5715;48.234;14.320;2022-12-18T15:39:13;100168.00;;;5.20
11321;BMP180;5715;48.234;14.320;2022-12-18T15:42:01;100172.00;;;5.20
11321;BMP180;5715;48.234;14.320;2022-12-18T15:45:12;100175.00;;;5.50
11321;BMP180;5715;48.234;14.320;2022-12-18T15:48:00;100171.00;;;5.10
11321;BMP180;5715;48.234;14.320;2022-12-18T15:50:53;100163.00;;;5.20
11321;BMP180;5715;48.234;14.320;2022-12-18T15:53:45;100149.00;;;4.80
11321;BMP180;5715;48.234;14.320;2022-12-18T15:56:33;100152.00;;;4.70
11321;BMP180;5715;48.234;14.320;2022-12-18T15:59:40;100148.00;;;4.20
11321;BMP180;5715;48.234;14.320;2022-12-18T16:02:27;100144.00;;;4.20
11321;BMP180;5715;48.234;14.320;2022-12-18T16:05:18;100157.00;;;4.30
11321;BMP180;5715;48.234;14.320;2022-12-18T16:08:06;100145.00;;;4.40
11321;BMP180;5715;48.234;14.320;2022-12-18T16:10:54;100151.00;;;5.10
11321;BMP180;5715;48.234;14.320;2022-12-18T16:13:42;100140.00;;;4.40
11321;BMP180;5715;48.234;14.320;2022-12-18T16:16:30;100143.00;;;4.70
11321;BMP180;5715;48.234;14.320;2022-12-18T16:19:18;100137.00;;;4.20
11321;BMP180;5715;48.234;14.320;2022-12-18T16:22:32;100144.00;;;5.20
11321;BMP180;5715;48.234;14.320;2022-12-18T16:25:28;100144.00;;;4.60
11321;BMP180;5715;48.234;14.320;2022-12-18T16:28:16;100147.00;;;4.90
11321;BMP180;5715;48.234;14.320;2022-12-18T16:31:04;100148.00;;;4.50
11321;BMP180;5715;48.234;14.320;2022-12-18T16:34:30;100158.00;;;4.50
11321;BMP180;5715;48.234;14.320;2022-12-18T16:37:22;100160.00;;;5.00
11321;BMP180;5715;48.234;14.320;2022-12-18T16:40:14;100156.00;;;4.70
11321;BMP180;5715;48.234;14.320;2022-12-18T16:43:02;100158.00;;;4.30
11321;BMP180;5715;48.234;14.320;2022-12-18T16:45:50;100158.00;;;4.00
11321;BMP180;5715;48.234;14.320;2022-12-18T16:48:38;100140.00;;;4.00
11321;BMP180;5715;48.234;14.320;2022-12-18T16:51:27;100143.00;;;4.50
11321;BMP180;5715;48.234;14.320;2022-12-18T16:54:15;100148.00;;;4.10
11321;BMP180;5715;48.234;14.320;2022-12-18T16:57:06;100145.00;;;4.20
11321;BMP180;5715;48.234;14.320;2022-12-18T16:59:54;100145.00;;;4.30
11321;BMP180;5715;48.234;14.320;2022-12-18T17:02:50;100155.00;;;4.40
11321;BMP180;5715;48.234;14.320;2022-12-18T17:05:39;100156.00;;;4.70
11321;BMP180;5715;48.234;14.320;2022-12-18T17:08:26;100153.00;;;4.50
11321;BMP180;5715;48.234;14.320;2022-12-18T17:11:14;100144.00;;;4.70
11321;BMP180;5715;48.234;14.320;2022-12-18T17:14:16;100140.00;;;4.80
11321;BMP180;5715;48.234;14.320;2022-12-18T17:17:07;100148.00;;;4.30
11321;BMP180;5715;48.234;14.320;2022-12-18T17:20:08;100144.00;;;4.00
11321;BMP180;5715;48.234;14.320;2022-12-18T17:22:56;100147.00;;;4.10
11321;BMP180;5715;48.234;14.320;2022-12-18T17:25:49;100145.00;;;4.10
11321;BMP180;5715;48.234;14.320;2022-12-18T17:28:40;100150.00;;;4.30
11321;BMP180;5715;48.234;14.320;2022-12-18T17:31:29;100147.00;;;3.90
11321;BMP180;5715;48.234;14.320;2022-12-18T17:34:18;100149.00;;;4.30
11321;BMP180;5715;48.234;14.320;2022-12-18T17:37:05;100149.00;;;4.30
11321;BMP180;5715;48.234;14.320;2022-12-18T17:39:53;100143.00;;;4.50
11321;BMP180;5715;48.234;14.320;2022-12-18T17:42:41;100141.00;;;4.50
11321;BMP180;5715;48.234;14.320;2022-12-18T17:45:29;100144.00;;;4.80
11321;BMP180;5715;48.234;14.320;2022-12-18T17:48:19;100135.00;;;4.40
11321;BMP180;5715;48.234;14.320;2022-12-18T17:51:09;100132.00;;;4.60
11321;BMP180;5715;48.234;14.320;2022-12-18T17:53:58;100132.00;;;4.40